sensor_id;sensor_type;location;lat;lon;timestamp;P1;durP1;ratioP1;P2;durP2;ratioP2
8183;SDS011;4133;48.752;9.088;2022-10-16T00:01:38;2.17;;;1.00;;
8183;SDS011;4133;48.752;9.088;2022-10-16T00:04:04;1.33;;;1.00;;
8183;SDS011;4133;48.752;9.088;2022-10-16T00:06:30;2.87;;;1.13;;
8183;SDS011;4133;48.752;9.088;2022-10-16T00:08:57;4.23;;;1.10;;
8183;SDS011;4133;48.752;9.088;2022-10-16T00:11:30;5.03;;;1.43;;
8183;SDS011;4133;48.752;9.088;2022-10-16T00:14:00;2.30;;;1.20;;
8183;SDS011;4133;48.752;9.088;2022-10-16T00:16:27;1.50;;;1.03;;
8183;SDS011;4133;48.752;9.088;2022-10-16T00:18:53;1.60;;;1.10;;
8183;SDS011;4133;48.752;9.088;2022-10-16T00:21:20;2.03;;;1.20;;
8183;SDS011;4133;48.752;9.088;2022-10-16T00:23:49;1.83;;;1.10;;
8183;SDS011;4133;48.752;9.088;2022-10-16T00:26:16;2.77;;;1.30;;
8183;SDS011;4133;48.752;9.088;2022-10-16T00:28:42;2.83;;;1.17;;
8183;SDS011;4133;48.752;9.088;2022-10-16T00:31:11;1.63;;;1.20;;
8183;SDS011;4133;48.752;9.088;2022-10-16T00:33:37;1.87;;;1.10;;
8183;SDS011;4133;48.752;9.088;2022-10-16T00:39:07;4.73;;;1.40;;
8183;SDS011;4133;48.752;9.088;2022-10-16T00:41:33;5.27;;;1.43;;
8183;SDS011;4133;48.752;9.088;2022-10-16T00:44:00;3.47;;;1.40;;
8183;SDS011;4133;48.752;9.088;2022-10-16T00:48:57;1.30;;;1.20;;
8183;SDS011;4133;48.752;9.088;2022-10-16T00:51:30;3.50;;;1.03;;
8183;SDS011;4133;48.752;9.088;2022-10-16T00:53:56;3.87;;;1.30;;
8183;SDS011;4133;48.752;9.088;2022-10-16T00:56:23;2.23;;;1.27;;
8183;SDS011;4133;48.752;9.088;2022-10-16T00:58:49;3.30;;;1.30;;
8183;SDS011;4133;48.752;9.088;2022-10-16T01:01:15;3.60;;;1.30;;
8183;SDS011;4133;48.752;9.088;2022-10-16T01:03:41;5.03;;;1.10;;
8183;SDS011;4133;48.752;9.088;2022-10-16T01:08:58;3.77;;;1.37;;
8183;SDS011;4133;48.752;9.088;2022-10-16T01:12:12;6.97;;;1.20;;
8183;SDS011;4133;48.752;9.088;2022-10-16T01:14:15;9.17;;;1.40;;
8183;SDS011;4133;48.752;9.088;2022-10-16T01:22:14;3.23;;;1.30;;
8183;SDS011;4133;48.752;9.088;2022-10-16T01:24:45;2.37;;;1.10;;
8183;SDS011;4133;48.752;9.088;2022-10-16T01:29:52;3.33;;;1.30;;
8183;SDS011;4133;48.752;9.088;2022-10-16T01:32:25;4.10;;;1.27;;
8183;SDS011;4133;48.752;9.088;2022-10-16T01:38:15;3.07;;;1.20;;
8183;SDS011;4133;48.752;9.088;2022-10-16T01:40:44;6.73;;;1.30;;
8183;SDS011;4133;48.752;9.088;2022-10-16T01:43:12;7.43;;;1.30;;
8183;SDS011;4133;48.752;9.088;2022-10-16T01:45:39;2.80;;;1.50;;
8183;SDS011;4133;48.752;9.088;2022-10-16T01:48:06;5.50;;;1.73;;
8183;SDS011;4133;48.752;9.088;2022-10-16T01:50:35;5.83;;;1.33;;
8183;SDS011;4133;48.752;9.088;2022-10-16T01:53:03;3.20;;;1.20;;
8183;SDS011;4133;48.752;9.088;2022-10-16T01:55:32;6.20;;;1.50;;
8183;SDS011;4133;48.752;9.088;2022-10-16T01:57:59;3.33;;;1.00;;
8183;SDS011;4133;48.752;9.088;2022-10-16T02:00:27;2.33;;;1.33;;
8183;SDS011;4133;48.752;9.088;2022-10-16T02:02:54;3.33;;;1.10;;
8183;SDS011;4133;48.752;9.088;2022-10-16T02:07:59;7.43;;;1.30;;
8183;SDS011;4133;48.752;9.088;2022-10-16T02:10:25;2.43;;;1.10;;
8183;SDS011;4133;48.752;9.088;2022-10-16T02:13:06;5.90;;;1.30;;
8183;SDS011;4133;48.752;9.088;2022-10-16T02:15:34;11.47;;;1.60;;
8183;SDS011;4133;48.752;9.088;2022-10-16T02:18:01;7.00;;;1.30;;
8183;SDS011;4133;48.752;9.088;2022-10-16T02:20:28;4.53;;;1.30;;
8183;SDS011;4133;48.752;9.088;2022-10-16T02:22:55;9.27;;;1.30;;
8183;SDS011;4133;48.752;9.088;2022-10-16T02:32:52;7.43;;;1.60;;
8183;SDS011;4133;48.752;9.088;2022-10-16T02:38:17;3.43;;;1.07;;
8183;SDS011;4133;48.752;9.088;2022-10-16T02:40:44;3.77;;;1.40;;
8183;SDS011;4133;48.752;9.088;2022-10-16T02:43:10;4.47;;;1.23;;
8183;SDS011;4133;48.752;9.088;2022-10-16T02:45:36;2.67;;;1.30;;
8183;SDS011;4133;48.752;9.088;2022-10-16T02:48:02;9.30;;;1.40;;
8183;SDS011;4133;48.752;9.088;2022-10-16T02:50:28;5.80;;;1.40;;
8183;SDS011;4133;48.752;9.088;2022-10-16T02:52:54;4.77;;;1.30;;
8183;SDS011;4133;48.752;9.088;2022-10-16T02:55:20;4.07;;;1.40;;
8183;SDS011;4133;48.752;9.088;2022-10-16T02:57:46;2.53;;;1.00;;
8183;SDS011;4133;48.752;9.088;2022-10-16T03:00:14;4.20;;;1.43;;
8183;SDS011;4133;48.752;9.088;2022-10-16T03:02:40;5.10;;;1.30;;
8183;SDS011;4133;48.752;9.088;2022-10-16T03:05:06;7.53;;;1.40;;
8183;SDS011;4133;48.752;9.088;2022-10-16T03:07:32;4.70;;;1.20;;
8183;SDS011;4133;48.752;9.088;2022-10-16T03:09:58;5.67;;;1.40;;
8183;SDS011;4133;48.752;9.088;2022-10-16T03:12:27;4.60;;;1.30;;
8183;SDS011;4133;48.752;9.088;2022-10-16T03:14:54;4.87;;;1.30;;
8183;SDS011;4133;48.752;9.088;2022-10-16T03:17:21;4.40;;;1.23;;
8183;SDS011;4133;48.752;9.088;2022-10-16T03:19:47;9.80;;;1.67;;
8183;SDS011;4133;48.752;9.088;2022-10-16T03:22:13;1.60;;;1.20;;
8183;SDS011;4133;48.752;9.088;2022-10-16T03:24:39;1.50;;;1.20;;
8183;SDS011;4133;48.752;9.088;2022-10-16T03:27:05;6.47;;;1.60;;
8183;SDS011;4133;48.752;9.088;2022-10-16T03:29:31;5.40;;;1.67;;
8183;SDS011;4133;48.752;9.088;2022-10-16T03:31:57;12.17;;;1.50;;
8183;SDS011;4133;48.752;9.088;2022-10-16T03:37:25;3.23;;;1.50;;
8183;SDS011;4133;48.752;9.088;2022-10-16T03:39:51;4.13;;;1.30;;
8183;SDS011;4133;48.752;9.088;2022-10-16T03:42:17;5.30;;;1.43;;
8183;SDS011;4133;48.752;9.088;2022-10-16T03:44:43;1.50;;;1.10;;
8183;SDS011;4133;48.752;9.088;2022-10-16T03:47:09;5.00;;;1.20;;
8183;SDS011;4133;48.752;9.088;2022-10-16T03:49:35;1.73;;;1.10;;
8183;SDS011;4133;48.752;9.088;2022-10-16T03:52:01;5.73;;;1.50;;
8183;SDS011;4133;48.752;9.088;2022-10-16T03:54:27;2.10;;;1.27;;
8183;SDS011;4133;48.752;9.088;2022-10-16T03:56:53;1.73;;;1.17;;
8183;SDS011;4133;48.752;9.088;2022-10-16T03:59:19;1.70;;;1.20;;
8183;SDS011;4133;48.752;9.088;2022-10-16T04:01:45;2.53;;;1.00;;
8183;SDS011;4133;48.752;9.088;2022-10-16T04:04:11;3.80;;;1.07;;
8183;SDS011;4133;48.752;9.088;2022-10-16T04:06:37;1.77;;;1.07;;
8183;SDS011;4133;48.752;9.088;2022-10-16T04:09:03;2.17;;;0.93;;
8183;SDS011;4133;48.752;9.088;2022-10-16T04:11:29;3.40;;;1.00;;
8183;SDS011;4133;48.752;9.088;2022-10-16T04:13:55;1.00;;;1.00;;
8183;SDS011;4133;48.752;9.088;2022-10-16T04:16:21;1.40;;;0.80;;
8183;SDS011;4133;48.752;9.088;2022-10-16T04:18:47;1.53;;;0.90;;
8183;SDS011;4133;48.752;9.088;2022-10-16T04:21:13;0.90;;;0.90;;
8183;SDS011;4133;48.752;9.088;2022-10-16T04:23:39;4.33;;;1.10;;
8183;SDS011;4133;48.752;9.088;2022-10-16T04:26:05;2.27;;;1.00;;
8183;SDS011;4133;48.752;9.088;2022-10-16T04:28:31;5.73;;;1.43;;
8183;SDS011;4133;48.752;9.088;2022-10-16T04:30:57;4.97;;;1.20;;
8183;SDS011;4133;48.752;9.088;2022-10-16T04:33:23;1.27;;;1.00;;
8183;SDS011;4133;48.752;9.088;2022-10-16T04:41:37;5.63;;;1.20;;
8183;SDS011;4133;48.752;9.088;2022-10-16T04:44:03;3.87;;;1.17;;
8183;SDS011;4133;48.752;9.088;2022-10-16T04:46:29;9.10;;;1.20;;
8183;SDS011;4133;48.752;9.088;2022-10-16T04:48:55;7.13;;;1.37;;
8183;SDS011;4133;48.752;9.088;2022-10-16T04:51:21;3.90;;;1.13;;
8183;SDS011;4133;48.752;9.088;2022-10-16T04:53:47;10.27;;;1.40;;
8183;SDS011;4133;48.752;9.088;2022-10-16T04:56:13;17.17;;;1.67;;
8183;SDS011;4133;48.752;9.088;2022-10-16T04:58:40;4.43;;;1.73;;
8183;SDS011;4133;48.752;9.088;2022-10-16T05:01:06;11.00;;;1.70;;
8183;SDS011;4133;48.752;9.088;2022-10-16T05:09:39;12.10;;;1.40;;
8183;SDS011;4133;48.752;9.088;2022-10-16T05:12:05;7.50;;;1.00;;
8183;SDS011;4133;48.752;9.088;2022-10-16T05:14:31;4.97;;;1.10;;
8183;SDS011;4133;48.752;9.088;2022-10-16T05:16:57;7.47;;;1.17;;
8183;SDS011;4133;48.752;9.088;2022-10-16T05:19:24;7.87;;;1.23;;
8183;SDS011;4133;48.752;9.088;2022-10-16T05:21:50;10.77;;;1.40;;
8183;SDS011;4133;48.752;9.088;2022-10-16T05:24:16;12.63;;;1.33;;
8183;SDS011;4133;48.752;9.088;2022-10-16T05:26:42;8.90;;;1.40;;
8183;SDS011;4133;48.752;9.088;2022-10-16T05:29:08;14.83;;;1.50;;
8183;SDS011;4133;48.752;9.088;2022-10-16T05:31:34;9.40;;;1.20;;
8183;SDS011;4133;48.752;9.088;2022-10-16T05:34:01;10.70;;;1.60;;
8183;SDS011;4133;48.752;9.088;2022-10-16T05:36:27;5.00;;;1.00;;
8183;SDS011;4133;48.752;9.088;2022-10-16T05:38:53;5.13;;;1.47;;
8183;SDS011;4133;48.752;9.088;2022-10-16T05:41:19;4.03;;;1.53;;
8183;SDS011;4133;48.752;9.088;2022-10-16T05:43:49;4.30;;;1.47;;
8183;SDS011;4133;48.752;9.088;2022-10-16T05:46:15;2.97;;;1.43;;
8183;SDS011;4133;48.752;9.088;2022-10-16T05:48:42;5.57;;;1.40;;
8183;SDS011;4133;48.752;9.088;2022-10-16T05:51:11;6.10;;;1.20;;
8183;SDS011;4133;48.752;9.088;2022-10-16T05:53:38;7.00;;;2.13;;
8183;SDS011;4133;48.752;9.088;2022-10-16T05:56:05;6.33;;;1.50;;
8183;SDS011;4133;48.752;9.088;2022-10-16T05:58:32;4.43;;;1.50;;
8183;SDS011;4133;48.752;9.088;2022-10-16T06:01:00;2.90;;;1.60;;
8183;SDS011;4133;48.752;9.088;2022-10-16T06:03:40;5.30;;;1.30;;
8183;SDS011;4133;48.752;9.088;2022-10-16T06:06:14;5.27;;;1.43;;
8183;SDS011;4133;48.752;9.088;2022-10-16T06:08:40;4.67;;;1.57;;
8183;SDS011;4133;48.752;9.088;2022-10-16T06:11:07;3.33;;;1.80;;
8183;SDS011;4133;48.752;9.088;2022-10-16T06:13:34;15.20;;;2.10;;
8183;SDS011;4133;48.752;9.088;2022-10-16T06:16:00;4.33;;;1.63;;
8183;SDS011;4133;48.752;9.088;2022-10-16T06:18:27;4.07;;;1.73;;
8183;SDS011;4133;48.752;9.088;2022-10-16T06:20:53;5.63;;;1.60;;
8183;SDS011;4133;48.752;9.088;2022-10-16T06:23:19;2.60;;;1.50;;
8183;SDS011;4133;48.752;9.088;2022-10-16T06:25:45;2.40;;;1.43;;
8183;SDS011;4133;48.752;9.088;2022-10-16T06:28:13;4.40;;;1.60;;
8183;SDS011;4133;48.752;9.088;2022-10-16T06:30:39;5.80;;;1.70;;
8183;SDS011;4133;48.752;9.088;2022-10-16T06:33:05;7.33;;;1.80;;
8183;SDS011;4133;48.752;9.088;2022-10-16T06:35:31;3.63;;;1.47;;
8183;SDS011;4133;48.752;9.088;2022-10-16T06:37:57;3.33;;;1.77;;
8183;SDS011;4133;48.752;9.088;2022-10-16T06:40:23;7.37;;;2.10;;
8183;SDS011;4133;48.752;9.088;2022-10-16T06:42:49;2.57;;;1.73;;
8183;SDS011;4133;48.752;9.088;2022-10-16T06:45:16;5.33;;;1.80;;
8183;SDS011;4133;48.752;9.088;2022-10-16T06:47:42;1.93;;;1.67;;
8183;SDS011;4133;48.752;9.088;2022-10-16T06:50:08;2.17;;;1.60;;
8183;SDS011;4133;48.752;9.088;2022-10-16T06:52:34;5.93;;;1.67;;
8183;SDS011;4133;48.752;9.088;2022-10-16T06:55:00;5.17;;;1.67;;
8183;SDS011;4133;48.752;9.088;2022-10-16T06:57:27;8.20;;;1.50;;
8183;SDS011;4133;48.752;9.088;2022-10-16T06:59:53;6.63;;;1.60;;
8183;SDS011;4133;48.752;9.088;2022-10-16T07:05:23;5.20;;;1.77;;
8183;SDS011;4133;48.752;9.088;2022-10-16T07:07:49;10.63;;;4.33;;
8183;SDS011;4133;48.752;9.088;2022-10-16T07:10:15;13.57;;;4.20;;
8183;SDS011;4133;48.752;9.088;2022-10-16T07:12:41;5.37;;;1.57;;
8183;SDS011;4133;48.752;9.088;2022-10-16T07:15:07;3.30;;;1.80;;
8183;SDS011;4133;48.752;9.088;2022-10-16T07:17:33;1.97;;;1.30;;
8183;SDS011;4133;48.752;9.088;2022-10-16T07:19:59;1.40;;;1.30;;
8183;SDS011;4133;48.752;9.088;2022-10-16T07:22:25;2.27;;;1.30;;
8183;SDS011;4133;48.752;9.088;2022-10-16T07:24:51;2.27;;;0.97;;
8183;SDS011;4133;48.752;9.088;2022-10-16T07:27:17;1.30;;;1.10;;
8183;SDS011;4133;48.752;9.088;2022-10-16T07:29:43;4.50;;;1.53;;
8183;SDS011;4133;48.752;9.088;2022-10-16T07:32:09;2.53;;;1.47;;
8183;SDS011;4133;48.752;9.088;2022-10-16T07:34:35;2.93;;;1.00;;
8183;SDS011;4133;48.752;9.088;2022-10-16T07:37:01;2.73;;;1.17;;
8183;SDS011;4133;48.752;9.088;2022-10-16T07:39:27;1.30;;;1.10;;
8183;SDS011;4133;48.752;9.088;2022-10-16T07:41:53;1.17;;;0.80;;
8183;SDS011;4133;48.752;9.088;2022-10-16T07:44:19;3.37;;;0.93;;
8183;SDS011;4133;48.752;9.088;2022-10-16T07:46:45;3.57;;;1.17;;
8183;SDS011;4133;48.752;9.088;2022-10-16T07:49:11;2.53;;;1.10;;
8183;SDS011;4133;48.752;9.088;2022-10-16T07:51:37;3.63;;;1.63;;
8183;SDS011;4133;48.752;9.088;2022-10-16T07:54:04;2.83;;;1.20;;
8183;SDS011;4133;48.752;9.088;2022-10-16T07:56:30;4.90;;;1.17;;
8183;SDS011;4133;48.752;9.088;2022-10-16T07:58:56;4.47;;;1.30;;
8183;SDS011;4133;48.752;9.088;2022-10-16T08:01:22;3.43;;;1.27;;
8183;SDS011;4133;48.752;9.088;2022-10-16T08:06:52;1.00;;;1.00;;
8183;SDS011;4133;48.752;9.088;2022-10-16T08:09:19;2.87;;;1.00;;
8183;SDS011;4133;48.752;9.088;2022-10-16T08:11:45;1.13;;;1.00;;
8183;SDS011;4133;48.752;9.088;2022-10-16T08:14:11;4.23;;;1.10;;
8183;SDS011;4133;48.752;9.088;2022-10-16T08:16:37;1.23;;;1.13;;
8183;SDS011;4133;48.752;9.088;2022-10-16T08:19:03;5.83;;;1.20;;
8183;SDS011;4133;48.752;9.088;2022-10-16T08:21:29;1.63;;;1.20;;
8183;SDS011;4133;48.752;9.088;2022-10-16T08:23:55;1.97;;;1.00;;
8183;SDS011;4133;48.752;9.088;2022-10-16T08:29:07;4.37;;;1.37;;
8183;SDS011;4133;48.752;9.088;2022-10-16T08:31:33;2.97;;;1.00;;
8183;SDS011;4133;48.752;9.088;2022-10-16T08:33:59;2.77;;;1.00;;
8183;SDS011;4133;48.752;9.088;2022-10-16T08:36:28;1.98;;;1.13;;
8183;SDS011;4133;48.752;9.088;2022-10-16T08:38:57;5.30;;;1.10;;
8183;SDS011;4133;48.752;9.088;2022-10-16T08:49:36;5.00;;;1.10;;
8183;SDS011;4133;48.752;9.088;2022-10-16T08:52:03;3.90;;;1.30;;
8183;SDS011;4133;48.752;9.088;2022-10-16T08:54:30;3.28;;;1.20;;
8183;SDS011;4133;48.752;9.088;2022-10-16T08:57:07;1.17;;;1.00;;
8183;SDS011;4133;48.752;9.088;2022-10-16T08:59:34;3.20;;;1.20;;
8183;SDS011;4133;48.752;9.088;2022-10-16T09:10:33;8.63;;;1.20;;
8183;SDS011;4133;48.752;9.088;2022-10-16T09:15:35;2.07;;;1.00;;
8183;SDS011;4133;48.752;9.088;2022-10-16T09:18:27;5.60;;;1.00;;
8183;SDS011;4133;48.752;9.088;2022-10-16T09:23:26;1.88;;;1.05;;
8183;SDS011;4133;48.752;9.088;2022-10-16T09:25:53;2.58;;;1.08;;
8183;SDS011;4133;48.752;9.088;2022-10-16T09:28:20;2.35;;;0.88;;
8183;SDS011;4133;48.752;9.088;2022-10-16T09:30:46;3.35;;;1.00;;
8183;SDS011;4133;48.752;9.088;2022-10-16T09:33:17;1.70;;;1.20;;
8183;SDS011;4133;48.752;9.088;2022-10-16T09:35:44;1.33;;;1.00;;
8183;SDS011;4133;48.752;9.088;2022-10-16T09:38:21;9.20;;;1.17;;
8183;SDS011;4133;48.752;9.088;2022-10-16T09:40:47;3.35;;;1.00;;
8183;SDS011;4133;48.752;9.088;2022-10-16T09:45:59;2.38;;;1.10;;
8183;SDS011;4133;48.752;9.088;2022-10-16T09:48:39;1.23;;;0.90;;
8183;SDS011;4133;48.752;9.088;2022-10-16T09:51:18;2.05;;;1.20;;
8183;SDS011;4133;48.752;9.088;2022-10-16T09:53:46;2.65;;;1.00;;
8183;SDS011;4133;48.752;9.088;2022-10-16T09:56:21;4.18;;;0.98;;
8183;SDS011;4133;48.752;9.088;2022-10-16T09:58:51;2.17;;;0.90;;
8183;SDS011;4133;48.752;9.088;2022-10-16T10:01:17;5.50;;;1.00;;
8183;SDS011;4133;48.752;9.088;2022-10-16T10:08:56;2.50;;;0.88;;
8183;SDS011;4133;48.752;9.088;2022-10-16T10:11:36;2.05;;;1.17;;
8183;SDS011;4133;48.752;9.088;2022-10-16T10:14:05;2.67;;;0.90;;
8183;SDS011;4133;48.752;9.088;2022-10-16T10:16:32;1.58;;;0.65;;
8183;SDS011;4133;48.752;9.088;2022-10-16T10:18:58;2.10;;;0.98;;
8183;SDS011;4133;48.752;9.088;2022-10-16T10:21:24;1.98;;;1.10;;
8183;SDS011;4133;48.752;9.088;2022-10-16T10:23:57;2.60;;;1.10;;
8183;SDS011;4133;48.752;9.088;2022-10-16T10:37:05;1.27;;;0.85;;
8183;SDS011;4133;48.752;9.088;2022-10-16T10:39:40;1.25;;;0.90;;
8183;SDS011;4133;48.752;9.088;2022-10-16T10:47:33;1.27;;;1.00;;
8183;SDS011;4133;48.752;9.088;2022-10-16T11:05:45;2.50;;;1.02;;
8183;SDS011;4133;48.752;9.088;2022-10-16T11:08:19;1.85;;;1.10;;
8183;SDS011;4133;48.752;9.088;2022-10-16T11:10:54;1.58;;;0.90;;
8183;SDS011;4133;48.752;9.088;2022-10-16T11:13:25;5.90;;;1.40;;
8183;SDS011;4133;48.752;9.088;2022-10-16T11:15:55;2.47;;;1.13;;
8183;SDS011;4133;48.752;9.088;2022-10-16T11:20:56;2.28;;;1.10;;
8183;SDS011;4133;48.752;9.088;2022-10-16T11:23:43;6.53;;;1.30;;
8183;SDS011;4133;48.752;9.088;2022-10-16T11:26:45;1.20;;;0.98;;
8183;SDS011;4133;48.752;9.088;2022-10-16T11:29:04;1.88;;;1.00;;
8183;SDS011;4133;48.752;9.088;2022-10-16T11:34:09;1.15;;;1.05;;
8183;SDS011;4133;48.752;9.088;2022-10-16T11:36:45;0.90;;;0.90;;
8183;SDS011;4133;48.752;9.088;2022-10-16T11:39:20;1.95;;;1.10;;
8183;SDS011;4133;48.752;9.088;2022-10-16T11:46:53;4.47;;;1.10;;
8183;SDS011;4133;48.752;9.088;2022-10-16T11:49:24;4.50;;;1.10;;
8183;SDS011;4133;48.752;9.088;2022-10-16T11:57:29;2.50;;;1.00;;
8183;SDS011;4133;48.752;9.088;2022-10-16T12:02:37;1.15;;;1.05;;
8183;SDS011;4133;48.752;9.088;2022-10-16T12:08:11;2.00;;;1.13;;
8183;SDS011;4133;48.752;9.088;2022-10-16T12:10:36;2.40;;;1.60;;
8183;SDS011;4133;48.752;9.088;2022-10-16T12:15:47;1.88;;;1.00;;
8183;SDS011;4133;48.752;9.088;2022-10-16T12:18:23;2.92;;;1.00;;
8183;SDS011;4133;48.752;9.088;2022-10-16T12:20:56;1.02;;;0.85;;
8183;SDS011;4133;48.752;9.088;2022-10-16T12:23:30;2.28;;;0.90;;
8183;SDS011;4133;48.752;9.088;2022-10-16T12:25:57;2.35;;;1.00;;
8183;SDS011;4133;48.752;9.088;2022-10-16T12:28:27;5.60;;;1.10;;
8183;SDS011;4133;48.752;9.088;2022-10-16T12:30:57;1.60;;;0.90;;
8183;SDS011;4133;48.752;9.088;2022-10-16T12:33:26;1.70;;;0.90;;
8183;SDS011;4133;48.752;9.088;2022-10-16T12:35:54;4.10;;;1.00;;
8183;SDS011;4133;48.752;9.088;2022-10-16T12:39:05;2.58;;;0.90;;
8183;SDS011;4133;48.752;9.088;2022-10-16T12:41:12;1.23;;;1.00;;
8183;SDS011;4133;48.752;9.088;2022-10-16T12:43:49;0.80;;;0.80;;
8183;SDS011;4133;48.752;9.088;2022-10-16T12:48:42;4.32;;;1.08;;
8183;SDS011;4133;48.752;9.088;2022-10-16T12:51:32;5.43;;;0.90;;
8183;SDS011;4133;48.752;9.088;2022-10-16T12:56:36;1.83;;;1.15;;
8183;SDS011;4133;48.752;9.088;2022-10-16T13:01:55;1.50;;;0.98;;
8183;SDS011;4133;48.752;9.088;2022-10-16T13:17:11;2.25;;;1.38;;
8183;SDS011;4133;48.752;9.088;2022-10-16T13:19:44;1.20;;;1.10;;
8183;SDS011;4133;48.752;9.088;2022-10-16T13:27:52;2.00;;;1.20;;
8183;SDS011;4133;48.752;9.088;2022-10-16T13:30:24;2.45;;;1.08;;
8183;SDS011;4133;48.752;9.088;2022-10-16T13:33:04;3.85;;;1.08;;
8183;SDS011;4133;48.752;9.088;2022-10-16T13:35:33;2.80;;;0.90;;
8183;SDS011;4133;48.752;9.088;2022-10-16T13:38:33;1.85;;;1.15;;
8183;SDS011;4133;48.752;9.088;2022-10-16T13:40:56;2.55;;;1.15;;
8183;SDS011;4133;48.752;9.088;2022-10-16T13:43:34;2.72;;;1.20;;
8183;SDS011;4133;48.752;9.088;2022-10-16T13:46:04;4.93;;;1.20;;
8183;SDS011;4133;48.752;9.088;2022-10-16T13:48:34;4.70;;;0.98;;
8183;SDS011;4133;48.752;9.088;2022-10-16T13:53:35;7.63;;;1.67;;
8183;SDS011;4133;48.752;9.088;2022-10-16T13:56:02;1.92;;;1.20;;
8183;SDS011;4133;48.752;9.088;2022-10-16T13:58:29;4.10;;;1.23;;
8183;SDS011;4133;48.752;9.088;2022-10-16T14:00:56;3.42;;;1.17;;
8183;SDS011;4133;48.752;9.088;2022-10-16T14:03:22;2.88;;;1.30;;
8183;SDS011;4133;48.752;9.088;2022-10-16T14:05:50;2.78;;;1.48;;
8183;SDS011;4133;48.752;9.088;2022-10-16T14:08:16;6.35;;;1.40;;
8183;SDS011;4133;48.752;9.088;2022-10-16T14:10:46;5.18;;;1.30;;
8183;SDS011;4133;48.752;9.088;2022-10-16T14:13:14;3.38;;;1.27;;
8183;SDS011;4133;48.752;9.088;2022-10-16T14:15:45;5.43;;;1.67;;
8183;SDS011;4133;48.752;9.088;2022-10-16T14:18:17;8.70;;;1.58;;
8183;SDS011;4133;48.752;9.088;2022-10-16T14:20:44;4.60;;;1.60;;
8183;SDS011;4133;48.752;9.088;2022-10-16T14:23:18;8.70;;;2.05;;
8183;SDS011;4133;48.752;9.088;2022-10-16T14:28:31;9.00;;;1.90;;
8183;SDS011;4133;48.752;9.088;2022-10-16T14:30:58;3.08;;;1.50;;
8183;SDS011;4133;48.752;9.088;2022-10-16T14:33:33;8.30;;;1.48;;
8183;SDS011;4133;48.752;9.088;2022-10-16T14:36:03;4.72;;;1.48;;
8183;SDS011;4133;48.752;9.088;2022-10-16T14:38:30;5.45;;;1.35;;
8183;SDS011;4133;48.752;9.088;2022-10-16T14:40:57;3.80;;;1.30;;
8183;SDS011;4133;48.752;9.088;2022-10-16T14:43:49;8.73;;;1.50;;
8183;SDS011;4133;48.752;9.088;2022-10-16T14:46:18;5.28;;;1.80;;
8183;SDS011;4133;48.752;9.088;2022-10-16T14:48:46;10.48;;;1.40;;
8183;SDS011;4133;48.752;9.088;2022-10-16T14:51:14;12.45;;;1.60;;
8183;SDS011;4133;48.752;9.088;2022-10-16T14:53:40;13.25;;;2.13;;
8183;SDS011;4133;48.752;9.088;2022-10-16T14:56:07;12.23;;;2.00;;
8183;SDS011;4133;48.752;9.088;2022-10-16T14:58:33;4.70;;;1.70;;
8183;SDS011;4133;48.752;9.088;2022-10-16T15:01:00;10.13;;;1.90;;
8183;SDS011;4133;48.752;9.088;2022-10-16T15:03:26;9.70;;;1.60;;
8183;SDS011;4133;48.752;9.088;2022-10-16T15:05:52;12.07;;;2.00;;
8183;SDS011;4133;48.752;9.088;2022-10-16T15:08:18;6.43;;;2.17;;
8183;SDS011;4133;48.752;9.088;2022-10-16T15:10:44;6.43;;;1.60;;
8183;SDS011;4133;48.752;9.088;2022-10-16T15:13:13;6.57;;;1.52;;
8183;SDS011;4133;48.752;9.088;2022-10-16T15:15:43;7.32;;;1.70;;
8183;SDS011;4133;48.752;9.088;2022-10-16T15:18:09;6.53;;;1.80;;
8183;SDS011;4133;48.752;9.088;2022-10-16T15:20:37;5.25;;;1.50;;
8183;SDS011;4133;48.752;9.088;2022-10-16T15:23:04;10.30;;;1.65;;
8183;SDS011;4133;48.752;9.088;2022-10-16T15:26:07;4.82;;;1.55;;
8183;SDS011;4133;48.752;9.088;2022-10-16T15:28:26;4.00;;;1.70;;
8183;SDS011;4133;48.752;9.088;2022-10-16T15:30:53;3.45;;;1.70;;
8183;SDS011;4133;48.752;9.088;2022-10-16T15:33:33;6.18;;;1.77;;
8183;SDS011;4133;48.752;9.088;2022-10-16T15:36:00;2.33;;;1.50;;
8183;SDS011;4133;48.752;9.088;2022-10-16T15:38:27;4.35;;;1.30;;
8183;SDS011;4133;48.752;9.088;2022-10-16T15:40:54;5.15;;;1.67;;
8183;SDS011;4133;48.752;9.088;2022-10-16T15:43:20;2.80;;;1.50;;
8183;SDS011;4133;48.752;9.088;2022-10-16T15:45:58;3.33;;;1.63;;
8183;SDS011;4133;48.752;9.088;2022-10-16T15:48:25;5.63;;;1.70;;
8183;SDS011;4133;48.752;9.088;2022-10-16T15:50:51;4.72;;;1.80;;
8183;SDS011;4133;48.752;9.088;2022-10-16T15:53:17;6.68;;;1.52;;
8183;SDS011;4133;48.752;9.088;2022-10-16T15:55:43;10.15;;;1.65;;
8183;SDS011;4133;48.752;9.088;2022-10-16T15:58:09;9.82;;;1.90;;
8183;SDS011;4133;48.752;9.088;2022-10-16T16:00:35;4.38;;;1.60;;
8183;SDS011;4133;48.752;9.088;2022-10-16T16:03:01;8.32;;;1.85;;
8183;SDS011;4133;48.752;9.088;2022-10-16T16:05:27;5.25;;;1.90;;
8183;SDS011;4133;48.752;9.088;2022-10-16T16:07:53;15.60;;;2.10;;
8183;SDS011;4133;48.752;9.088;2022-10-16T16:10:19;9.90;;;2.70;;
8183;SDS011;4133;48.752;9.088;2022-10-16T16:12:48;9.98;;;1.90;;
8183;SDS011;4133;48.752;9.088;2022-10-16T16:15:17;13.70;;;2.10;;
8183;SDS011;4133;48.752;9.088;2022-10-16T16:17:43;7.30;;;2.10;;
8183;SDS011;4133;48.752;9.088;2022-10-16T16:20:09;10.35;;;2.33;;
8183;SDS011;4133;48.752;9.088;2022-10-16T16:22:35;12.43;;;2.30;;
8183;SDS011;4133;48.752;9.088;2022-10-16T16:25:01;10.02;;;2.50;;
8183;SDS011;4133;48.752;9.088;2022-10-16T16:27:27;16.67;;;2.45;;
8183;SDS011;4133;48.752;9.088;2022-10-16T16:29:54;21.00;;;2.35;;
8183;SDS011;4133;48.752;9.088;2022-10-16T16:32:37;9.68;;;2.30;;
8183;SDS011;4133;48.752;9.088;2022-10-16T16:35:06;9.95;;;2.42;;
8183;SDS011;4133;48.752;9.088;2022-10-16T16:37:32;11.07;;;1.90;;
8183;SDS011;4133;48.752;9.088;2022-10-16T16:39:58;17.38;;;2.67;;
8183;SDS011;4133;48.752;9.088;2022-10-16T16:42:25;16.63;;;2.83;;
8183;SDS011;4133;48.752;9.088;2022-10-16T16:44:51;11.27;;;2.50;;
8183;SDS011;4133;48.752;9.088;2022-10-16T16:47:17;13.07;;;2.73;;
8183;SDS011;4133;48.752;9.088;2022-10-16T16:49:43;5.30;;;2.13;;
8183;SDS011;4133;48.752;9.088;2022-10-16T16:52:11;12.98;;;3.45;;
8183;SDS011;4133;48.752;9.088;2022-10-16T16:54:38;14.50;;;2.42;;
8183;SDS011;4133;48.752;9.088;2022-10-16T16:57:03;12.03;;;2.23;;
8183;SDS011;4133;48.752;9.088;2022-10-16T16:59:30;14.17;;;2.53;;
8183;SDS011;4133;48.752;9.088;2022-10-16T17:01:58;14.00;;;2.30;;
8183;SDS011;4133;48.752;9.088;2022-10-16T17:04:24;14.07;;;2.57;;
8183;SDS011;4133;48.752;9.088;2022-10-16T17:06:51;14.97;;;2.47;;
8183;SDS011;4133;48.752;9.088;2022-10-16T17:09:17;12.13;;;2.63;;
8183;SDS011;4133;48.752;9.088;2022-10-16T17:11:43;8.90;;;2.47;;
8183;SDS011;4133;48.752;9.088;2022-10-16T17:14:11;12.73;;;2.55;;
8183;SDS011;4133;48.752;9.088;2022-10-16T17:16:37;15.43;;;2.20;;
8183;SDS011;4133;48.752;9.088;2022-10-16T17:19:08;13.33;;;2.23;;
8183;SDS011;4133;48.752;9.088;2022-10-16T17:21:39;12.77;;;2.70;;
8183;SDS011;4133;48.752;9.088;2022-10-16T17:24:05;15.50;;;3.40;;
8183;SDS011;4133;48.752;9.088;2022-10-16T17:26:31;15.10;;;2.97;;
8183;SDS011;4133;48.752;9.088;2022-10-16T17:28:59;9.37;;;2.63;;
8183;SDS011;4133;48.752;9.088;2022-10-16T17:31:32;16.53;;;2.17;;
8183;SDS011;4133;48.752;9.088;2022-10-16T17:34:01;14.05;;;2.90;;
8183;SDS011;4133;48.752;9.088;2022-10-16T17:36:28;8.27;;;2.50;;
8183;SDS011;4133;48.752;9.088;2022-10-16T17:38:57;9.65;;;2.00;;
8183;SDS011;4133;48.752;9.088;2022-10-16T17:41:25;17.53;;;2.83;;
8183;SDS011;4133;48.752;9.088;2022-10-16T17:43:51;11.07;;;2.30;;
8183;SDS011;4133;48.752;9.088;2022-10-16T17:46:18;10.32;;;2.55;;
8183;SDS011;4133;48.752;9.088;2022-10-16T17:48:45;14.30;;;2.30;;
8183;SDS011;4133;48.752;9.088;2022-10-16T17:51:13;7.27;;;2.33;;
8183;SDS011;4133;48.752;9.088;2022-10-16T17:53:39;15.50;;;2.63;;
8183;SDS011;4133;48.752;9.088;2022-10-16T17:56:06;11.10;;;2.60;;
8183;SDS011;4133;48.752;9.088;2022-10-16T17:58:33;16.30;;;2.90;;
8183;SDS011;4133;48.752;9.088;2022-10-16T18:00:59;11.88;;;2.95;;
8183;SDS011;4133;48.752;9.088;2022-10-16T18:03:25;11.20;;;2.00;;
8183;SDS011;4133;48.752;9.088;2022-10-16T18:05:53;11.00;;;2.20;;
8183;SDS011;4133;48.752;9.088;2022-10-16T18:08:19;10.40;;;2.20;;
8183;SDS011;4133;48.752;9.088;2022-10-16T18:10:48;11.90;;;2.10;;
8183;SDS011;4133;48.752;9.088;2022-10-16T18:13:15;2.93;;;2.10;;